sensor_id;sensor_type;location;lat;lon;timestamp;pressure;altitude;pressure_sealevel;temperature;humidity
78343;BME280;67618;52.444;21.192;2023-02-11T00:09:51;101699.83;;;2.08;78.28
78343;BME280;67618;52.444;21.192;2023-02-11T00:19:56;101689.66;;;2.07;78.30
78343;BME280;67618;52.444;21.192;2023-02-11T00:30:02;101680.13;;;2.09;77.78
78343;BME280;67618;52.444;21.192;2023-02-11T00:40:10;101667.33;;;2.08;77.75
78343;BME280;67618;52.444;21.192;2023-02-11T00:50:16;101635.69;;;2.13;77.38
78343;BME280;67618;52.444;21.192;2023-02-11T01:00:22;101603.42;;;2.08;77.31
78343;BME280;67618;52.444;21.192;2023-02-11T01:10:27;101582.09;;;2.12;76.87
78343;BME280;67618;52.444;21.192;2023-02-11T01:20:33;101549.86;;;2.12;76.63
78343;BME280;67618;52.444;21.192;2023-02-11T01:30:39;101517.92;;;2.17;76.08
78343;BME280;67618;52.444;21.192;2023-02-11T01:40:49;101523.58;;;2.20;75.64
78343;BME280;67618;52.444;21.192;2023-02-11T01:50:58;101508.02;;;2.23;75.16
78343;BME280;67618;52.444;21.192;2023-02-11T02:01:06;101480.15;;;2.23;74.99
78343;BME280;67618;52.444;21.192;2023-02-11T02:11:13;101445.44;;;2.18;75.04
78343;BME280;67618;52.444;21.192;2023-02-11T02:21:35;101427.27;;;2.16;74.88
78343;BME280;67618;52.444;21.192;2023-02-11T02:42:29;101394.45;;;2.05;74.97
78343;BME280;67618;52.444;21.192;2023-02-11T02:52:38;101386.39;;;2.06;75.11
78343;BME280;67618;52.444;21.192;2023-02-11T03:02:54;101371.98;;;2.04;75.15
78343;BME280;67618;52.444;21.192;2023-02-11T03:13:03;101352.30;;;2.07;75.10
78343;BME280;67618;52.444;21.192;2023-02-11T03:23:13;101340.10;;;2.11;74.96
78343;BME280;67618;52.444;21.192;2023-02-11T03:33:26;101322.14;;;2.10;74.72
78343;BME280;67618;52.444;21.192;2023-02-11T03:43:36;101308.52;;;2.09;74.54
78343;BME280;67618;52.444;21.192;2023-02-11T03:53:46;101290.93;;;2.13;74.33
78343;BME280;67618;52.444;21.192;2023-02-11T04:03:53;101260.55;;;2.07;74.18
78343;BME280;67618;52.444;21.192;2023-02-11T04:13:59;101246.56;;;2.02;74.02
78343;BME280;67618;52.444;21.192;2023-02-11T04:24:05;101232.30;;;1.95;73.90
78343;BME280;67618;52.444;21.192;2023-02-11T04:34:11;101204.47;;;1.92;73.90
78343;BME280;67618;52.444;21.192;2023-02-11T04:44:17;101173.44;;;1.91;73.74
78343;BME280;67618;52.444;21.192;2023-02-11T04:54:22;101144.42;;;1.89;73.52
78343;BME280;67618;52.444;21.192;2023-02-11T05:04:28;101145.08;;;1.92;73.04
78343;BME280;67618;52.444;21.192;2023-02-11T05:14:34;101119.30;;;1.85;72.90
78343;BME280;67618;52.444;21.192;2023-02-11T05:24:39;101102.33;;;1.87;72.62
78343;BME280;67618;52.444;21.192;2023-02-11T05:34:45;101112.10;;;1.90;72.45
78343;BME280;67618;52.444;21.192;2023-02-11T05:44:51;101094.33;;;1.94;71.93
78343;BME280;67618;52.444;21.192;2023-02-11T05:54:57;101070.65;;;1.91;71.91
78343;BME280;67618;52.444;21.192;2023-02-11T06:05:03;101061.45;;;1.97;71.71
78343;BME280;67618;52.444;21.192;2023-02-11T06:15:09;101052.17;;;1.98;71.69
78343;BME280;67618;52.444;21.192;2023-02-11T06:25:15;101031.64;;;2.05;71.59
78343;BME280;67618;52.444;21.192;2023-02-11T06:35:21;101026.81;;;2.05;71.62
78343;BME280;67618;52.444;21.192;2023-02-11T06:45:27;101013.66;;;2.17;71.40
78343;BME280;67618;52.444;21.192;2023-02-11T06:59:56;101003.84;;;2.30;71.38
78343;BME280;67618;52.444;21.192;2023-02-11T07:09:56;100984.17;;;2.33;72.41
78343;BME280;67618;52.444;21.192;2023-02-11T07:19:57;100974.27;;;2.31;73.30
78343;BME280;67618;52.444;21.192;2023-02-11T07:29:58;100968.40;;;2.26;73.67
78343;BME280;67618;52.444;21.192;2023-02-11T07:39:58;100968.94;;;2.23;74.56
78343;BME280;67618;52.444;21.192;2023-02-11T07:49:59;100969.55;;;2.16;75.45
78343;BME280;67618;52.444;21.192;2023-02-11T08:00:00;100953.83;;;2.10;75.68
78343;BME280;67618;52.444;21.192;2023-02-11T08:10:04;100959.81;;;2.09;77.11
78343;BME280;67618;52.444;21.192;2023-02-11T08:20:05;100955.41;;;2.02;78.16
78343;BME280;67618;52.444;21.192;2023-02-11T08:30:06;100937.34;;;2.02;77.90
78343;BME280;67618;52.444;21.192;2023-02-11T08:40:08;100930.98;;;2.07;78.06
78343;BME280;67618;52.444;21.192;2023-02-11T08:50:11;100911.33;;;2.06;78.69
78343;BME280;67618;52.444;21.192;2023-02-11T09:00:12;100889.69;;;2.12;78.14
78343;BME280;67618;52.444;21.192;2023-02-11T09:10:13;100880.39;;;2.26;77.89
78343;BME280;67618;52.444;21.192;2023-02-11T09:20:14;100867.61;;;2.35;77.75
78343;BME280;67618;52.444;21.192;2023-02-11T09:30:15;100889.67;;;2.35;78.16
78343;BME280;67618;52.444;21.192;2023-02-11T09:40:16;100897.91;;;2.34;79.61
78343;BME280;67618;52.444;21.192;2023-02-11T09:50:25;100897.87;;;2.28;81.72
78343;BME280;67618;52.444;21.192;2023-02-11T10:00:36;100896.29;;;2.27;82.95
78343;BME280;67618;52.444;21.192;2023-02-11T10:31:19;100816.67;;;2.22;84.31
78343;BME280;67618;52.444;21.192;2023-02-11T10:41:26;100792.59;;;2.22;84.15
78343;BME280;67618;52.444;21.192;2023-02-11T10:51:31;100767.80;;;2.22;84.62
78343;BME280;67618;52.444;21.192;2023-02-11T11:01:39;100755.60;;;2.23;85.12
78343;BME280;67618;52.444;21.192;2023-02-11T11:11:51;100793.83;;;2.28;84.98
78343;BME280;67618;52.444;21.192;2023-02-11T11:21:54;100802.73;;;2.31;85.18
78343;BME280;67618;52.444;21.192;2023-02-11T11:32:23;100777.67;;;2.34;85.17
78343;BME280;67618;52.444;21.192;2023-02-11T11:42:30;100765.61;;;2.43;85.32
78343;BME280;67618;52.444;21.192;2023-02-11T12:44:49;100737.03;;;2.80;85.37
78343;BME280;67618;52.444;21.192;2023-02-11T12:54:58;100719.95;;;2.90;85.21
78343;BME280;67618;52.444;21.192;2023-02-11T13:05:07;100725.77;;;2.99;85.20
78343;BME280;67618;52.444;21.192;2023-02-11T13:15:13;100730.31;;;3.06;85.16
78343;BME280;67618;52.444;21.192;2023-02-11T13:25:24;100724.55;;;3.15;85.36
78343;BME280;67618;52.444;21.192;2023-02-11T13:35:34;100705.92;;;3.27;85.89
78343;BME280;67618;52.444;21.192;2023-02-11T13:45:48;100714.56;;;3.38;85.97
78343;BME280;67618;52.444;21.192;2023-02-11T13:56:03;100719.09;;;3.51;85.72
78343;BME280;67618;52.444;21.192;2023-02-11T14:16:09;100725.66;;;3.63;85.66
78343;BME280;67618;52.444;21.192;2023-02-11T14:46:49;100766.41;;;3.81;85.46
78343;BME280;67618;52.444;21.192;2023-02-11T14:57:16;100758.70;;;3.89;85.32
78343;BME280;67618;52.444;21.192;2023-02-11T15:07:21;100761.13;;;3.95;85.23
78343;BME280;67618;52.444;21.192;2023-02-11T15:17:24;100756.02;;;3.99;85.48
78343;BME280;67618;52.444;21.192;2023-02-11T15:27:25;100765.45;;;4.01;85.36
78343;BME280;67618;52.444;21.192;2023-02-11T15:37:28;100777.44;;;4.04;85.65
78343;BME280;67618;52.444;21.192;2023-02-11T15:47:28;100795.67;;;4.08;85.77
78343;BME280;67618;52.444;21.192;2023-02-11T15:57:29;100810.50;;;4.13;85.64
78343;BME280;67618;52.444;21.192;2023-02-11T16:07:43;100833.90;;;4.22;85.45
78343;BME280;67618;52.444;21.192;2023-02-11T16:17:45;100851.14;;;4.33;85.13
78343;BME280;67618;52.444;21.192;2023-02-11T16:27:50;100852.02;;;4.46;84.83
78343;BME280;67618;52.444;21.192;2023-02-11T16:37:52;100855.20;;;4.54;84.72
78343;BME280;67618;52.444;21.192;2023-02-11T16:47:52;100869.98;;;4.63;84.58
78343;BME280;67618;52.444;21.192;2023-02-11T16:57:53;100884.52;;;4.70;84.28
78343;BME280;67618;52.444;21.192;2023-02-11T17:07:54;100902.95;;;4.80;84.01
78343;BME280;67618;52.444;21.192;2023-02-11T17:17:54;100920.45;;;4.87;83.74
78343;BME280;67618;52.444;21.192;2023-02-11T17:27:55;100926.18;;;4.95;83.59
78343;BME280;67618;52.444;21.192;2023-02-11T17:37:56;100940.20;;;5.01;83.39
78343;BME280;67618;52.444;21.192;2023-02-11T17:47:57;100958.20;;;5.01;83.46
78343;BME280;67618;52.444;21.192;2023-02-11T17:57:57;100963.98;;;5.04;83.43
78343;BME280;67618;52.444;21.192;2023-02-11T18:07:58;100978.91;;;5.05;83.25
78343;BME280;67618;52.444;21.192;2023-02-11T18:17:59;100992.71;;;5.11;82.93
78343;BME280;67618;52.444;21.192;2023-02-11T18:27:59;101004.04;;;5.13;83.16
78343;BME280;67618;52.444;21.192;2023-02-11T18:38:00;101019.19;;;5.17;82.91
78343;BME280;67618;52.444;21.192;2023-02-11T18:48:01;101040.76;;;5.21;82.91
78343;BME280;67618;52.444;21.192;2023-02-11T18:58:01;101062.59;;;5.22;82.66
78343;BME280;67618;52.444;21.192;2023-02-11T19:08:02;101074.57;;;5.23;82.47
78343;BME280;67618;52.444;21.192;2023-02-11T19:18:03;101088.34;;;5.27;82.54
78343;BME280;67618;52.444;21.192;2023-02-11T19:28:04;101103.60;;;5.28;82.15
78343;BME280;67618;52.444;21.192;2023-02-11T19:38:05;101124.48;;;5.32;82.00
78343;BME280;67618;52.444;21.192;2023-02-11T19:48:06;101138.30;;;5.31;81.99
78343;BME280;67618;52.444;21.192;2023-02-11T19:58:07;101156.08;;;5.29;81.90
78343;BME280;67618;52.444;21.192;2023-02-11T20:08:08;101180.55;;;5.31;81.21
78343;BME280;67618;52.444;21.192;2023-02-11T20:18:08;101204.00;;;5.28;80.93
78343;BME280;67618;52.444;21.192;2023-02-11T20:28:09;101227.52;;;5.27;80.66
78343;BME280;67618;52.444;21.192;2023-02-11T20:38:10;101249.44;;;5.26;80.22
78343;BME280;67618;52.444;21.192;2023-02-11T20:48:10;101277.46;;;5.09;77.31
78343;BME280;67618;52.444;21.192;2023-02-11T20:58:11;101308.23;;;4.92;76.46
78343;BME280;67618;52.444;21.192;2023-02-11T21:08:12;101339.64;;;4.85;75.68
78343;BME280;67618;52.444;21.192;2023-02-11T21:18:12;101373.20;;;4.66;73.79
78343;BME280;67618;52.444;21.192;2023-02-11T21:28:13;101386.55;;;4.48;73.66
78343;BME280;67618;52.444;21.192;2023-02-11T21:38:14;101417.00;;;4.39;72.95
78343;BME280;67618;52.444;21.192;2023-02-11T21:48:16;101450.13;;;4.15;71.09
78343;BME280;67618;52.444;21.192;2023-02-11T21:58:17;101465.11;;;3.92;70.87
78343;BME280;67618;52.444;21.192;2023-02-11T22:08:18;101491.58;;;3.76;70.19
78343;BME280;67618;52.444;21.192;2023-02-11T22:18:18;101505.55;;;3.59;69.23
78343;BME280;67618;52.444;21.192;2023-02-11T22:28:19;101520.69;;;3.34;69.13
78343;BME280;67618;52.444;21.192;2023-02-11T22:38:20;101551.08;;;3.15;69.25
78343;BME280;67618;52.444;21.192;2023-02-11T22:48:21;101582.97;;;3.15;70.25
78343;BME280;67618;52.444;21.192;2023-02-11T22:58:21;101606.01;;;3.09;70.34
78343;BME280;67618;52.444;21.192;2023-02-11T23:08:25;101634.48;;;2.94;69.30
78343;BME280;67618;52.444;21.192;2023-02-11T23:18:26;101652.81;;;2.70;68.86
78343;BME280;67618;52.444;21.192;2023-02-11T23:28:27;101663.35;;;2.60;69.09
78343;BME280;67618;52.444;21.192;2023-02-11T23:38:28;101674.74;;;2.50;69.28
78343;BME280;67618;52.444;21.192;2023-02-11T23:48:29;101687.52;;;2.44;68.91
78343;BME280;67618;52.444;21.192;2023-02-11T23:58:30;101700.55;;;2.39;69.42
